Aérodrome :
LOGIN :

S'inscrire | Disclaimer

   EN    FR    IT 

 










Légende :    VFR   VFR Marginal   IFR   IFR Intensif   IFR Très Intensif
Visi : 
Plafond : 
>= 8 km
>= 3000ft
5 à 8 km
1000 à 3000 ft
1500m à 5 km
500 à 1000 ft
800 à 1500m
200 à 500 ft
< 800m
< 200 ft
Symboles :   Orages  Brouillard  Fortes neiges  Fortes précipitations  Vent > 20 kt
SIGMETs :   Divers  Orages  Givrage  Turbulence  Onde Orograph.  Cendres Volcan.







- Altitude de l'aérodrome : 458 ft
- Voir les cartes d'approche


LFSI - St-Dizier

DERNIER METAR :
  • 191830Z AUTO 26005KT 9999 BKN044 BKN064 18/11 Q1022

METARs EXPIRÉS :
  • 191800Z AUTO 26006KT 9999 FEW046 BKN058 BKN096 19/11 Q1021
  • 191730Z AUTO 25007KT 9999 FEW044 BKN054 BKN090 19/10 Q1021
  • 191700Z AUTO 25009KT 9999 SCT046 BKN058 BKN068 20/10 Q1021
  • 191630Z AUTO 26009KT CAVOK 20/11 Q1021
  • 191600Z AUTO 24009KT 200V280 9999 BKN046 BKN058 BKN072 21/10 Q1021

TAF TAF LFSI
Valide du 19 à 15h jusqu'au 20 à 15h UTC


191400Z 1915/2015 27010KT 9999 SCT040 SCT065
Pas de NOTAMs connus pour ce terrain.



MET'MAP, la Météo Aéronautique d'un coup d'oeil ! - Copyright ORBIFLY Décembre 2007 - Disclaimer

ORBIFLY MET'MAP TEAM :

Programmation & Développement : Alexandra Zaïnal
Conception & Développement : Baudouin d'Aumeries
Co-Programmation & Développement : Marc-Olivier Méhu
Soutien technique & logistique : Manuel Goepfert

Contact : metmap@orbifly.com




SOURCES & CREDITS :

   NOAA